sensor_id;sensor_type;location;lat;lon;timestamp;P1;durP1;ratioP1;P2;durP2;ratioP2
56401;SDS011;42299;35.160;26.100;2022-07-23T00:01:14;6.45;;;2.60;;
56401;SDS011;42299;35.160;26.100;2022-07-23T00:02:37;6.10;;;3.05;;
56401;SDS011;42299;35.160;26.100;2022-07-23T00:04:00;8.70;;;3.00;;
56401;SDS011;42299;35.160;26.100;2022-07-23T00:05:22;6.15;;;3.17;;
56401;SDS011;42299;35.160;26.100;2022-07-23T00:06:44;5.72;;;2.58;;
56401;SDS011;42299;35.160;26.100;2022-07-23T00:08:07;5.40;;;3.10;;
56401;SDS011;42299;35.160;26.100;2022-07-23T00:09:31;5.40;;;2.90;;
56401;SDS011;42299;35.160;26.100;2022-07-23T00:10:54;5.88;;;2.50;;
56401;SDS011;42299;35.160;26.100;2022-07-23T00:12:15;6.07;;;2.97;;
56401;SDS011;42299;35.160;26.100;2022-07-23T00:13:38;6.07;;;3.30;;
56401;SDS011;42299;35.160;26.100;2022-07-23T00:14:59;5.78;;;3.05;;
56401;SDS011;42299;35.160;26.100;2022-07-23T00:16:23;4.82;;;2.50;;
56401;SDS011;42299;35.160;26.100;2022-07-23T00:17:44;6.78;;;3.10;;
56401;SDS011;42299;35.160;26.100;2022-07-23T00:19:07;6.38;;;3.00;;
56401;SDS011;42299;35.160;26.100;2022-07-23T00:20:30;7.82;;;3.00;;
56401;SDS011;42299;35.160;26.100;2022-07-23T00:21:52;4.88;;;2.90;;
56401;SDS011;42299;35.160;26.100;2022-07-23T00:23:14;5.95;;;3.05;;
56401;SDS011;42299;35.160;26.100;2022-07-23T00:24:37;8.30;;;3.17;;
56401;SDS011;42299;35.160;26.100;2022-07-23T00:25:59;5.53;;;2.63;;
56401;SDS011;42299;35.160;26.100;2022-07-23T00:27:22;8.60;;;2.92;;
56401;SDS011;42299;35.160;26.100;2022-07-23T00:28:44;6.03;;;2.80;;
56401;SDS011;42299;35.160;26.100;2022-07-23T00:30:06;8.05;;;3.00;;
56401;SDS011;42299;35.160;26.100;2022-07-23T00:31:30;6.32;;;2.65;;
56401;SDS011;42299;35.160;26.100;2022-07-23T00:32:53;4.90;;;2.97;;
56401;SDS011;42299;35.160;26.100;2022-07-23T00:34:17;4.65;;;2.75;;
56401;SDS011;42299;35.160;26.100;2022-07-23T00:35:40;5.47;;;2.83;;
56401;SDS011;42299;35.160;26.100;2022-07-23T00:37:03;7.20;;;2.78;;
56401;SDS011;42299;35.160;26.100;2022-07-23T00:38:26;7.32;;;3.35;;
56401;SDS011;42299;35.160;26.100;2022-07-23T00:39:50;7.35;;;2.85;;
56401;SDS011;42299;35.160;26.100;2022-07-23T00:41:13;5.35;;;2.90;;
56401;SDS011;42299;35.160;26.100;2022-07-23T00:42:34;5.90;;;2.83;;
56401;SDS011;42299;35.160;26.100;2022-07-23T00:45:41;9.85;;;3.30;;
56401;SDS011;42299;35.160;26.100;2022-07-23T00:47:04;9.93;;;3.00;;
56401;SDS011;42299;35.160;26.100;2022-07-23T00:48:26;7.18;;;2.83;;
56401;SDS011;42299;35.160;26.100;2022-07-23T00:49:48;5.95;;;2.88;;
56401;SDS011;42299;35.160;26.100;2022-07-23T00:51:10;7.18;;;3.17;;
56401;SDS011;42299;35.160;26.100;2022-07-23T00:52:32;7.50;;;3.35;;
56401;SDS011;42299;35.160;26.100;2022-07-23T00:53:55;4.90;;;3.00;;
56401;SDS011;42299;35.160;26.100;2022-07-23T00:55:19;5.60;;;3.33;;
56401;SDS011;42299;35.160;26.100;2022-07-23T00:56:41;5.20;;;3.08;;
56401;SDS011;42299;35.160;26.100;2022-07-23T00:58:05;8.77;;;3.25;;
56401;SDS011;42299;35.160;26.100;2022-07-23T00:59:28;7.35;;;2.80;;
56401;SDS011;42299;35.160;26.100;2022-07-23T01:00:51;7.72;;;2.85;;
56401;SDS011;42299;35.160;26.100;2022-07-23T01:02:13;7.05;;;3.40;;
56401;SDS011;42299;35.160;26.100;2022-07-23T01:03:35;6.32;;;2.80;;
56401;SDS011;42299;35.160;26.100;2022-07-23T01:04:57;5.28;;;2.63;;
56401;SDS011;42299;35.160;26.100;2022-07-23T01:06:19;6.97;;;3.28;;
56401;SDS011;42299;35.160;26.100;2022-07-23T01:07:41;12.88;;;3.30;;
56401;SDS011;42299;35.160;26.100;2022-07-23T01:09:06;6.95;;;2.97;;
56401;SDS011;42299;35.160;26.100;2022-07-23T01:10:30;10.10;;;3.40;;
56401;SDS011;42299;35.160;26.100;2022-07-23T01:11:52;6.50;;;2.97;;
56401;SDS011;42299;35.160;26.100;2022-07-23T01:13:16;6.30;;;3.00;;
56401;SDS011;42299;35.160;26.100;2022-07-23T01:14:38;5.88;;;2.95;;
56401;SDS011;42299;35.160;26.100;2022-07-23T01:16:01;4.60;;;2.88;;
56401;SDS011;42299;35.160;26.100;2022-07-23T01:17:24;5.82;;;2.97;;
56401;SDS011;42299;35.160;26.100;2022-07-23T01:18:45;9.02;;;3.72;;
56401;SDS011;42299;35.160;26.100;2022-07-23T01:20:08;8.43;;;3.00;;
56401;SDS011;42299;35.160;26.100;2022-07-23T01:21:31;7.40;;;3.05;;
56401;SDS011;42299;35.160;26.100;2022-07-23T01:22:56;5.53;;;3.25;;
56401;SDS011;42299;35.160;26.100;2022-07-23T01:24:17;9.93;;;3.10;;
56401;SDS011;42299;35.160;26.100;2022-07-23T01:25:49;8.38;;;3.40;;
56401;SDS011;42299;35.160;26.100;2022-07-23T01:27:15;7.15;;;3.55;;
56401;SDS011;42299;35.160;26.100;2022-07-23T01:28:39;6.82;;;3.50;;
56401;SDS011;42299;35.160;26.100;2022-07-23T01:30:02;7.30;;;3.60;;
56401;SDS011;42299;35.160;26.100;2022-07-23T01:31:24;7.38;;;3.35;;
56401;SDS011;42299;35.160;26.100;2022-07-23T01:32:47;8.30;;;3.40;;
56401;SDS011;42299;35.160;26.100;2022-07-23T01:34:10;7.55;;;3.25;;
56401;SDS011;42299;35.160;26.100;2022-07-23T01:35:32;5.22;;;2.78;;
56401;SDS011;42299;35.160;26.100;2022-07-23T01:36:58;8.23;;;2.90;;
56401;SDS011;42299;35.160;26.100;2022-07-23T01:38:22;5.53;;;3.30;;
56401;SDS011;42299;35.160;26.100;2022-07-23T01:39:44;6.45;;;3.10;;
56401;SDS011;42299;35.160;26.100;2022-07-23T01:41:07;6.40;;;3.00;;
56401;SDS011;42299;35.160;26.100;2022-07-23T01:42:30;7.30;;;3.45;;
56401;SDS011;42299;35.160;26.100;2022-07-23T01:43:52;5.85;;;3.08;;
56401;SDS011;42299;35.160;26.100;2022-07-23T01:45:15;6.65;;;3.08;;
56401;SDS011;42299;35.160;26.100;2022-07-23T01:46:41;5.65;;;2.85;;
56401;SDS011;42299;35.160;26.100;2022-07-23T01:48:04;6.38;;;3.10;;
56401;SDS011;42299;35.160;26.100;2022-07-23T01:49:27;6.15;;;2.83;;
56401;SDS011;42299;35.160;26.100;2022-07-23T01:51:10;6.10;;;3.08;;
56401;SDS011;42299;35.160;26.100;2022-07-23T01:52:37;10.82;;;3.38;;
56401;SDS011;42299;35.160;26.100;2022-07-23T01:54:01;7.75;;;3.47;;
56401;SDS011;42299;35.160;26.100;2022-07-23T01:55:24;5.60;;;3.05;;
56401;SDS011;42299;35.160;26.100;2022-07-23T01:56:45;10.57;;;3.88;;
56401;SDS011;42299;35.160;26.100;2022-07-23T01:58:08;5.25;;;2.80;;
56401;SDS011;42299;35.160;26.100;2022-07-23T01:59:30;7.47;;;3.35;;
56401;SDS011;42299;35.160;26.100;2022-07-23T02:00:52;9.02;;;3.30;;
56401;SDS011;42299;35.160;26.100;2022-07-23T02:02:14;6.43;;;3.20;;
56401;SDS011;42299;35.160;26.100;2022-07-23T02:03:36;12.70;;;3.85;;
56401;SDS011;42299;35.160;26.100;2022-07-23T02:04:59;6.72;;;3.00;;
56401;SDS011;42299;35.160;26.100;2022-07-23T02:06:22;6.20;;;2.58;;
56401;SDS011;42299;35.160;26.100;2022-07-23T02:07:44;6.72;;;3.42;;
56401;SDS011;42299;35.160;26.100;2022-07-23T02:09:07;6.22;;;3.35;;
56401;SDS011;42299;35.160;26.100;2022-07-23T02:10:30;7.05;;;3.25;;
56401;SDS011;42299;35.160;26.100;2022-07-23T02:11:52;7.97;;;3.13;;
56401;SDS011;42299;35.160;26.100;2022-07-23T02:13:14;11.07;;;3.35;;
56401;SDS011;42299;35.160;26.100;2022-07-23T02:14:37;9.23;;;3.13;;
56401;SDS011;42299;35.160;26.100;2022-07-23T02:15:58;8.80;;;3.28;;
56401;SDS011;42299;35.160;26.100;2022-07-23T02:17:20;10.93;;;3.60;;
56401;SDS011;42299;35.160;26.100;2022-07-23T02:18:42;7.65;;;3.33;;
56401;SDS011;42299;35.160;26.100;2022-07-23T02:20:05;7.50;;;4.18;;
56401;SDS011;42299;35.160;26.100;2022-07-23T02:21:28;5.32;;;3.45;;
56401;SDS011;42299;35.160;26.100;2022-07-23T02:22:50;5.13;;;3.30;;
56401;SDS011;42299;35.160;26.100;2022-07-23T02:24:15;6.93;;;2.92;;
56401;SDS011;42299;35.160;26.100;2022-07-23T02:25:38;7.13;;;3.03;;
56401;SDS011;42299;35.160;26.100;2022-07-23T02:27:00;8.60;;;3.25;;
56401;SDS011;42299;35.160;26.100;2022-07-23T02:28:23;6.07;;;3.25;;
56401;SDS011;42299;35.160;26.100;2022-07-23T02:29:45;8.32;;;3.40;;
56401;SDS011;42299;35.160;26.100;2022-07-23T02:31:08;7.80;;;3.63;;
56401;SDS011;42299;35.160;26.100;2022-07-23T02:32:30;7.88;;;3.17;;
56401;SDS011;42299;35.160;26.100;2022-07-23T02:33:53;7.50;;;3.08;;
56401;SDS011;42299;35.160;26.100;2022-07-23T02:35:14;6.20;;;3.15;;
56401;SDS011;42299;35.160;26.100;2022-07-23T02:36:37;5.90;;;3.10;;
56401;SDS011;42299;35.160;26.100;2022-07-23T02:38:00;5.70;;;3.20;;
56401;SDS011;42299;35.160;26.100;2022-07-23T02:39:26;7.13;;;2.83;;
56401;SDS011;42299;35.160;26.100;2022-07-23T02:40:47;5.07;;;2.85;;
56401;SDS011;42299;35.160;26.100;2022-07-23T02:42:11;10.63;;;3.60;;
56401;SDS011;42299;35.160;26.100;2022-07-23T02:43:33;7.22;;;3.35;;
56401;SDS011;42299;35.160;26.100;2022-07-23T02:44:55;7.65;;;3.10;;
56401;SDS011;42299;35.160;26.100;2022-07-23T02:46:18;8.75;;;3.08;;
56401;SDS011;42299;35.160;26.100;2022-07-23T02:47:40;7.07;;;3.22;;
56401;SDS011;42299;35.160;26.100;2022-07-23T02:49:03;6.97;;;2.95;;
56401;SDS011;42299;35.160;26.100;2022-07-23T02:50:26;5.05;;;2.70;;
56401;SDS011;42299;35.160;26.100;2022-07-23T02:51:51;6.22;;;2.95;;
56401;SDS011;42299;35.160;26.100;2022-07-23T02:53:12;8.13;;;3.50;;
56401;SDS011;42299;35.160;26.100;2022-07-23T02:54:38;5.38;;;3.53;;
56401;SDS011;42299;35.160;26.100;2022-07-23T02:56:00;7.75;;;3.63;;
56401;SDS011;42299;35.160;26.100;2022-07-23T02:57:23;7.25;;;3.47;;
56401;SDS011;42299;35.160;26.100;2022-07-23T02:58:44;6.03;;;3.25;;
56401;SDS011;42299;35.160;26.100;2022-07-23T03:00:08;6.22;;;3.10;;
56401;SDS011;42299;35.160;26.100;2022-07-23T03:01:30;10.52;;;3.47;;
56401;SDS011;42299;35.160;26.100;2022-07-23T03:02:53;7.47;;;3.25;;
56401;SDS011;42299;35.160;26.100;2022-07-23T03:04:15;6.75;;;3.03;;
56401;SDS011;42299;35.160;26.100;2022-07-23T03:05:37;10.70;;;3.50;;
56401;SDS011;42299;35.160;26.100;2022-07-23T03:06:59;6.72;;;3.17;;
56401;SDS011;42299;35.160;26.100;2022-07-23T03:08:22;6.82;;;3.33;;
56401;SDS011;42299;35.160;26.100;2022-07-23T03:09:47;7.75;;;2.75;;
56401;SDS011;42299;35.160;26.100;2022-07-23T03:11:09;8.43;;;2.80;;
56401;SDS011;42299;35.160;26.100;2022-07-23T03:12:32;4.20;;;2.50;;
56401;SDS011;42299;35.160;26.100;2022-07-23T03:13:56;8.18;;;2.92;;
56401;SDS011;42299;35.160;26.100;2022-07-23T03:15:18;10.70;;;4.80;;
56401;SDS011;42299;35.160;26.100;2022-07-23T03:16:40;5.30;;;3.03;;
56401;SDS011;42299;35.160;26.100;2022-07-23T03:18:02;5.50;;;3.22;;
56401;SDS011;42299;35.160;26.100;2022-07-23T03:19:24;6.40;;;3.05;;
56401;SDS011;42299;35.160;26.100;2022-07-23T03:20:46;7.03;;;2.78;;
56401;SDS011;42299;35.160;26.100;2022-07-23T03:22:09;5.60;;;3.03;;
56401;SDS011;42299;35.160;26.100;2022-07-23T03:23:30;9.70;;;4.15;;
56401;SDS011;42299;35.160;26.100;2022-07-23T03:24:54;8.63;;;3.30;;
56401;SDS011;42299;35.160;26.100;2022-07-23T03:26:22;8.05;;;3.15;;
56401;SDS011;42299;35.160;26.100;2022-07-23T03:27:46;5.25;;;3.17;;
56401;SDS011;42299;35.160;26.100;2022-07-23T03:29:09;4.07;;;2.55;;
56401;SDS011;42299;35.160;26.100;2022-07-23T03:33:15;8.52;;;3.38;;
56401;SDS011;42299;35.160;26.100;2022-07-23T03:34:39;6.22;;;3.10;;
56401;SDS011;42299;35.160;26.100;2022-07-23T03:36:00;7.95;;;3.30;;
56401;SDS011;42299;35.160;26.100;2022-07-23T03:37:26;6.25;;;2.83;;
56401;SDS011;42299;35.160;26.100;2022-07-23T03:38:51;12.45;;;4.60;;
56401;SDS011;42299;35.160;26.100;2022-07-23T03:40:16;8.35;;;2.88;;
56401;SDS011;42299;35.160;26.100;2022-07-23T03:41:38;6.57;;;3.35;;
56401;SDS011;42299;35.160;26.100;2022-07-23T03:43:00;7.88;;;3.63;;
56401;SDS011;42299;35.160;26.100;2022-07-23T03:44:23;5.55;;;2.97;;
56401;SDS011;42299;35.160;26.100;2022-07-23T03:45:44;11.68;;;3.40;;
56401;SDS011;42299;35.160;26.100;2022-07-23T03:47:07;6.43;;;2.90;;
56401;SDS011;42299;35.160;26.100;2022-07-23T03:48:28;5.03;;;2.60;;
56401;SDS011;42299;35.160;26.100;2022-07-23T03:49:50;8.15;;;2.58;;
56401;SDS011;42299;35.160;26.100;2022-07-23T03:51:12;5.97;;;2.95;;
56401;SDS011;42299;35.160;26.100;2022-07-23T03:52:34;7.88;;;2.72;;
56401;SDS011;42299;35.160;26.100;2022-07-23T03:53:56;5.88;;;2.88;;
56401;SDS011;42299;35.160;26.100;2022-07-23T03:55:20;8.15;;;3.75;;
56401;SDS011;42299;35.160;26.100;2022-07-23T03:56:42;4.80;;;2.58;;
56401;SDS011;42299;35.160;26.100;2022-07-23T03:58:04;4.80;;;2.63;;
56401;SDS011;42299;35.160;26.100;2022-07-23T03:59:26;6.38;;;2.70;;
56401;SDS011;42299;35.160;26.100;2022-07-23T04:00:49;4.82;;;2.75;;
56401;SDS011;42299;35.160;26.100;2022-07-23T04:02:11;4.70;;;2.45;;
56401;SDS011;42299;35.160;26.100;2022-07-23T04:03:33;7.55;;;2.95;;
56401;SDS011;42299;35.160;26.100;2022-07-23T04:04:55;8.98;;;2.90;;
56401;SDS011;42299;35.160;26.100;2022-07-23T04:06:18;4.72;;;2.53;;
56401;SDS011;42299;35.160;26.100;2022-07-23T04:07:40;6.03;;;2.22;;
56401;SDS011;42299;35.160;26.100;2022-07-23T04:09:03;6.80;;;2.47;;
56401;SDS011;42299;35.160;26.100;2022-07-23T04:10:27;4.97;;;2.85;;
56401;SDS011;42299;35.160;26.100;2022-07-23T04:11:49;3.55;;;2.20;;
56401;SDS011;42299;35.160;26.100;2022-07-23T04:13:13;8.52;;;2.63;;
56401;SDS011;42299;35.160;26.100;2022-07-23T04:14:36;7.28;;;2.78;;
56401;SDS011;42299;35.160;26.100;2022-07-23T04:15:57;5.82;;;2.80;;
56401;SDS011;42299;35.160;26.100;2022-07-23T04:17:20;5.20;;;2.42;;
56401;SDS011;42299;35.160;26.100;2022-07-23T04:18:42;15.95;;;3.00;;
56401;SDS011;42299;35.160;26.100;2022-07-23T04:20:10;7.07;;;2.42;;
56401;SDS011;42299;35.160;26.100;2022-07-23T04:21:40;8.38;;;2.45;;
56401;SDS011;42299;35.160;26.100;2022-07-23T04:23:03;5.45;;;2.58;;
56401;SDS011;42299;35.160;26.100;2022-07-23T04:24:24;5.80;;;2.38;;
56401;SDS011;42299;35.160;26.100;2022-07-23T04:25:49;7.75;;;2.38;;
56401;SDS011;42299;35.160;26.100;2022-07-23T04:27:11;5.70;;;2.67;;
56401;SDS011;42299;35.160;26.100;2022-07-23T04:28:34;5.38;;;2.78;;
56401;SDS011;42299;35.160;26.100;2022-07-23T04:29:56;3.95;;;2.22;;
56401;SDS011;42299;35.160;26.100;2022-07-23T04:31:18;5.35;;;2.45;;
56401;SDS011;42299;35.160;26.100;2022-07-23T04:32:40;5.63;;;2.28;;
56401;SDS011;42299;35.160;26.100;2022-07-23T04:34:10;8.18;;;2.60;;
56401;SDS011;42299;35.160;26.100;2022-07-23T04:35:31;7.97;;;2.45;;
56401;SDS011;42299;35.160;26.100;2022-07-23T04:37:04;8.27;;;2.72;;
56401;SDS011;42299;35.160;26.100;2022-07-23T04:38:26;7.20;;;2.42;;
56401;SDS011;42299;35.160;26.100;2022-07-23T04:39:53;6.93;;;2.80;;
56401;SDS011;42299;35.160;26.100;2022-07-23T04:41:19;5.53;;;2.35;;
56401;SDS011;42299;35.160;26.100;2022-07-23T04:42:42;5.28;;;2.05;;
56401;SDS011;42299;35.160;26.100;2022-07-23T04:44:04;5.72;;;2.47;;
56401;SDS011;42299;35.160;26.100;2022-07-23T04:46:48;5.95;;;2.38;;
56401;SDS011;42299;35.160;26.100;2022-07-23T04:48:10;5.00;;;2.25;;
56401;SDS011;42299;35.160;26.100;2022-07-23T04:49:33;6.10;;;2.75;;
56401;SDS011;42299;35.160;26.100;2022-07-23T04:50:56;7.95;;;2.28;;
56401;SDS011;42299;35.160;26.100;2022-07-23T04:52:20;7.07;;;2.60;;
56401;SDS011;42299;35.160;26.100;2022-07-23T04:53:42;5.32;;;2.63;;
56401;SDS011;42299;35.160;26.100;2022-07-23T04:55:05;4.15;;;2.15;;
56401;SDS011;42299;35.160;26.100;2022-07-23T04:56:30;4.68;;;2.33;;
56401;SDS011;42299;35.160;26.100;2022-07-23T04:57:52;4.15;;;2.03;;
56401;SDS011;42299;35.160;26.100;2022-07-23T04:59:15;6.85;;;2.60;;
56401;SDS011;42299;35.160;26.100;2022-07-23T05:00:37;9.68;;;2.22;;
56401;SDS011;42299;35.160;26.100;2022-07-23T05:02:00;7.18;;;2.30;;
56401;SDS011;42299;35.160;26.100;2022-07-23T05:03:23;7.97;;;2.83;;
56401;SDS011;42299;35.160;26.100;2022-07-23T05:04:47;5.45;;;2.15;;
56401;SDS011;42299;35.160;26.100;2022-07-23T05:06:10;6.20;;;2.05;;
56401;SDS011;42299;35.160;26.100;2022-07-23T05:07:32;8.20;;;2.25;;
56401;SDS011;42299;35.160;26.100;2022-07-23T05:08:54;4.47;;;2.45;;
56401;SDS011;42299;35.160;26.100;2022-07-23T05:10:17;5.50;;;2.53;;
56401;SDS011;42299;35.160;26.100;2022-07-23T05:11:41;5.82;;;2.20;;
56401;SDS011;42299;35.160;26.100;2022-07-23T05:13:03;5.43;;;2.40;;
56401;SDS011;42299;35.160;26.100;2022-07-23T05:14:25;5.22;;;2.55;;
56401;SDS011;42299;35.160;26.100;2022-07-23T05:15:48;9.02;;;2.00;;
56401;SDS011;42299;35.160;26.100;2022-07-23T05:17:11;6.72;;;2.30;;
56401;SDS011;42299;35.160;26.100;2022-07-23T05:18:33;4.95;;;2.15;;
56401;SDS011;42299;35.160;26.100;2022-07-23T05:19:55;6.85;;;2.92;;
56401;SDS011;42299;35.160;26.100;2022-07-23T05:21:18;3.58;;;1.65;;
56401;SDS011;42299;35.160;26.100;2022-07-23T05:22:41;5.28;;;2.00;;
56401;SDS011;42299;35.160;26.100;2022-07-23T05:24:04;5.47;;;2.08;;
56401;SDS011;42299;35.160;26.100;2022-07-23T05:25:28;6.45;;;2.35;;
56401;SDS011;42299;35.160;26.100;2022-07-23T05:26:52;6.22;;;2.17;;
56401;SDS011;42299;35.160;26.100;2022-07-23T05:28:15;5.60;;;1.92;;
56401;SDS011;42299;35.160;26.100;2022-07-23T05:29:38;6.70;;;2.03;;
56401;SDS011;42299;35.160;26.100;2022-07-23T05:31:02;7.32;;;2.30;;
56401;SDS011;42299;35.160;26.100;2022-07-23T05:32:25;6.45;;;2.25;;
56401;SDS011;42299;35.160;26.100;2022-07-23T05:33:59;6.20;;;2.38;;
56401;SDS011;42299;35.160;26.100;2022-07-23T05:35:22;8.73;;;2.30;;
56401;SDS011;42299;35.160;26.100;2022-07-23T05:36:59;10.70;;;2.40;;
56401;SDS011;42299;35.160;26.100;2022-07-23T05:38:21;3.35;;;1.67;;
56401;SDS011;42299;35.160;26.100;2022-07-23T05:39:44;7.78;;;2.22;;
56401;SDS011;42299;35.160;26.100;2022-07-23T05:41:06;5.95;;;1.90;;
56401;SDS011;42299;35.160;26.100;2022-07-23T05:42:30;4.63;;;1.83;;
56401;SDS011;42299;35.160;26.100;2022-07-23T05:43:53;4.90;;;2.00;;
56401;SDS011;42299;35.160;26.100;2022-07-23T05:45:16;6.22;;;2.50;;
56401;SDS011;42299;35.160;26.100;2022-07-23T05:46:39;5.85;;;2.17;;
56401;SDS011;42299;35.160;26.100;2022-07-23T05:48:04;5.65;;;2.35;;
56401;SDS011;42299;35.160;26.100;2022-07-23T05:49:33;5.93;;;2.05;;
56401;SDS011;42299;35.160;26.100;2022-07-23T05:51:22;6.28;;;2.20;;
56401;SDS011;42299;35.160;26.100;2022-07-23T05:52:46;6.35;;;2.10;;
56401;SDS011;42299;35.160;26.100;2022-07-23T05:54:33;10.25;;;1.92;;
56401;SDS011;42299;35.160;26.100;2022-07-23T05:55:56;5.60;;;2.20;;
56401;SDS011;42299;35.160;26.100;2022-07-23T05:57:19;5.65;;;1.85;;
56401;SDS011;42299;35.160;26.100;2022-07-23T05:58:43;6.78;;;2.30;;
56401;SDS011;42299;35.160;26.100;2022-07-23T06:00:06;6.65;;;2.40;;
56401;SDS011;42299;35.160;26.100;2022-07-23T06:01:34;5.60;;;2.00;;
56401;SDS011;42299;35.160;26.100;2022-07-23T06:03:03;4.13;;;2.38;;
56401;SDS011;42299;35.160;26.100;2022-07-23T06:04:26;4.78;;;2.10;;
56401;SDS011;42299;35.160;26.100;2022-07-23T06:06:09;5.60;;;2.05;;
56401;SDS011;42299;35.160;26.100;2022-07-23T06:07:32;7.03;;;2.20;;
56401;SDS011;42299;35.160;26.100;2022-07-23T06:08:55;6.43;;;2.45;;
56401;SDS011;42299;35.160;26.100;2022-07-23T06:10:17;6.30;;;2.22;;
56401;SDS011;42299;35.160;26.100;2022-07-23T06:11:40;6.60;;;2.17;;
56401;SDS011;42299;35.160;26.100;2022-07-23T06:13:02;5.15;;;2.25;;
56401;SDS011;42299;35.160;26.100;2022-07-23T06:14:26;8.63;;;2.10;;
56401;SDS011;42299;35.160;26.100;2022-07-23T06:15:51;7.00;;;1.95;;
56401;SDS011;42299;35.160;26.100;2022-07-23T06:17:13;9.30;;;2.67;;
56401;SDS011;42299;35.160;26.100;2022-07-23T06:18:36;6.35;;;1.90;;
56401;SDS011;42299;35.160;26.100;2022-07-23T06:19:58;7.50;;;2.45;;
56401;SDS011;42299;35.160;26.100;2022-07-23T06:21:21;5.85;;;2.13;;
56401;SDS011;42299;35.160;26.100;2022-07-23T06:22:43;6.60;;;2.28;;
56401;SDS011;42299;35.160;26.100;2022-07-23T06:24:06;3.05;;;2.00;;
56401;SDS011;42299;35.160;26.100;2022-07-23T06:26:49;6.50;;;2.10;;
56401;SDS011;42299;35.160;26.100;2022-07-23T06:28:12;5.90;;;2.10;;
56401;SDS011;42299;35.160;26.100;2022-07-23T06:29:37;5.43;;;1.90;;
56401;SDS011;42299;35.160;26.100;2022-07-23T06:31:01;7.63;;;2.20;;
56401;SDS011;42299;35.160;26.100;2022-07-23T06:32:23;6.32;;;1.85;;
56401;SDS011;42299;35.160;26.100;2022-07-23T06:33:46;7.43;;;2.13;;
56401;SDS011;42299;35.160;26.100;2022-07-23T06:35:08;8.05;;;2.30;;
56401;SDS011;42299;35.160;26.100;2022-07-23T06:36:31;6.43;;;2.40;;
56401;SDS011;42299;35.160;26.100;2022-07-23T06:37:53;4.78;;;2.10;;
56401;SDS011;42299;35.160;26.100;2022-07-23T06:39:16;7.80;;;1.80;;
56401;SDS011;42299;35.160;26.100;2022-07-23T06:40:42;5.13;;;1.90;;
56401;SDS011;42299;35.160;26.100;2022-07-23T06:42:05;4.93;;;1.80;;
56401;SDS011;42299;35.160;26.100;2022-07-23T06:43:32;4.18;;;2.17;;
56401;SDS011;42299;35.160;26.100;2022-07-23T06:44:56;7.72;;;2.30;;
56401;SDS011;42299;35.160;26.100;2022-07-23T06:46:18;6.93;;;2.42;;
56401;SDS011;42299;35.160;26.100;2022-07-23T06:47:41;4.22;;;2.00;;
56401;SDS011;42299;35.160;26.100;2022-07-23T06:49:03;6.57;;;2.08;;
56401;SDS011;42299;35.160;26.100;2022-07-23T06:50:25;6.18;;;2.00;;
56401;SDS011;42299;35.160;26.100;2022-07-23T06:51:47;8.07;;;2.17;;
56401;SDS011;42299;35.160;26.100;2022-07-23T06:53:10;6.30;;;1.90;;
56401;SDS011;42299;35.160;26.100;2022-07-23T06:54:41;5.40;;;1.73;;
56401;SDS011;42299;35.160;26.100;2022-07-23T06:56:04;4.47;;;2.15;;
56401;SDS011;42299;35.160;26.100;2022-07-23T06:57:27;5.10;;;1.95;;
56401;SDS011;42299;35.160;26.100;2022-07-23T06:58:49;9.05;;;2.78;;
56401;SDS011;42299;35.160;26.100;2022-07-23T07:00:13;6.05;;;1.92;;
56401;SDS011;42299;35.160;26.100;2022-07-23T07:01:36;7.65;;;2.33;;
56401;SDS011;42299;35.160;26.100;2022-07-23T07:02:57;6.38;;;2.03;;
56401;SDS011;42299;35.160;26.100;2022-07-23T07:04:20;8.50;;;2.13;;
56401;SDS011;42299;35.160;26.100;2022-07-23T07:05:42;4.47;;;1.77;;
56401;SDS011;42299;35.160;26.100;2022-07-23T07:07:04;7.20;;;2.33;;
56401;SDS011;42299;35.160;26.100;2022-07-23T07:08:27;8.40;;;2.13;;
56401;SDS011;42299;35.160;26.100;2022-07-23T07:09:48;4.05;;;1.67;;
56401;SDS011;42299;35.160;26.100;2022-07-23T07:11:11;4.28;;;1.77;;
56401;SDS011;42299;35.160;26.100;2022-07-23T07:12:32;4.63;;;1.90;;
56401;SDS011;42299;35.160;26.100;2022-07-23T07:13:55;6.63;;;2.15;;
56401;SDS011;42299;35.160;26.100;2022-07-23T07:15:19;5.95;;;2.00;;
56401;SDS011;42299;35.160;26.100;2022-07-23T07:16:41;4.72;;;1.63;;
56401;SDS011;42299;35.160;26.100;2022-07-23T07:18:04;4.25;;;1.50;;
56401;SDS011;42299;35.160;26.100;2022-07-23T07:19:26;5.13;;;1.77;;
56401;SDS011;42299;35.160;26.100;2022-07-23T07:20:48;4.15;;;1.90;;
56401;SDS011;42299;35.160;26.100;2022-07-23T07:22:11;6.80;;;2.13;;
56401;SDS011;42299;35.160;26.100;2022-07-23T07:23:33;8.05;;;1.83;;
56401;SDS011;42299;35.160;26.100;2022-07-23T07:24:56;2.78;;;1.48;;
56401;SDS011;42299;35.160;26.100;2022-07-23T07:26:18;4.88;;;1.55;;
56401;SDS011;42299;35.160;26.100;2022-07-23T07:27:41;7.68;;;1.83;;
56401;SDS011;42299;35.160;26.100;2022-07-23T07:29:04;4.10;;;1.55;;
56401;SDS011;42299;35.160;26.100;2022-07-23T07:30:28;5.97;;;1.80;;
56401;SDS011;42299;35.160;26.100;2022-07-23T07:31:50;6.05;;;1.83;;
56401;SDS011;42299;35.160;26.100;2022-07-23T07:33:13;4.50;;;1.63;;
56401;SDS011;42299;35.160;26.100;2022-07-23T07:34:35;8.90;;;2.05;;
56401;SDS011;42299;35.160;26.100;2022-07-23T07:35:58;4.57;;;1.77;;
56401;SDS011;42299;35.160;26.100;2022-07-23T07:37:21;5.80;;;2.35;;
56401;SDS011;42299;35.160;26.100;2022-07-23T07:38:42;4.90;;;1.95;;
56401;SDS011;42299;35.160;26.100;2022-07-23T07:40:05;3.38;;;1.50;;
56401;SDS011;42299;35.160;26.100;2022-07-23T07:41:28;4.85;;;1.70;;
56401;SDS011;42299;35.160;26.100;2022-07-23T07:42:51;4.63;;;1.65;;
56401;SDS011;42299;35.160;26.100;2022-07-23T07:44:13;6.82;;;1.67;;
56401;SDS011;42299;35.160;26.100;2022-07-23T07:45:38;8.75;;;2.47;;
56401;SDS011;42299;35.160;26.100;2022-07-23T07:47:00;5.50;;;2.10;;
56401;SDS011;42299;35.160;26.100;2022-07-23T07:48:22;5.22;;;1.75;;
56401;SDS011;42299;35.160;26.100;2022-07-23T07:49:44;5.32;;;1.98;;
56401;SDS011;42299;35.160;26.100;2022-07-23T07:51:11;6.15;;;1.98;;
56401;SDS011;42299;35.160;26.100;2022-07-23T07:52:34;6.82;;;2.45;;
56401;SDS011;42299;35.160;26.100;2022-07-23T07:53:57;6.78;;;1.73;;
56401;SDS011;42299;35.160;26.100;2022-07-23T07:55:21;5.30;;;1.77;;
56401;SDS011;42299;35.160;26.100;2022-07-23T07:56:42;5.18;;;2.08;;
56401;SDS011;42299;35.160;26.100;2022-07-23T07:58:04;6.53;;;1.85;;
56401;SDS011;42299;35.160;26.100;2022-07-23T07:59:26;3.47;;;1.70;;
56401;SDS011;42299;35.160;26.100;2022-07-23T08:00:50;5.55;;;1.92;;
56401;SDS011;42299;35.160;26.100;2022-07-23T08:02:13;4.75;;;1.90;;
56401;SDS011;42299;35.160;26.100;2022-07-23T08:03:35;5.97;;;1.58;;
56401;SDS011;42299;35.160;26.100;2022-07-23T08:04:57;8.18;;;1.70;;
56401;SDS011;42299;35.160;26.100;2022-07-23T08:06:19;4.43;;;1.67;;
56401;SDS011;42299;35.160;26.100;2022-07-23T08:07:41;4.55;;;1.85;;
56401;SDS011;42299;35.160;26.100;2022-07-23T08:09:04;7.18;;;1.92;;
56401;SDS011;42299;35.160;26.100;2022-07-23T08:10:26;4.97;;;1.92;;
56401;SDS011;42299;35.160;26.100;2022-07-23T08:11:51;5.30;;;1.70;;
56401;SDS011;42299;35.160;26.100;2022-07-23T08:13:14;3.90;;;1.65;;
56401;SDS011;42299;35.160;26.100;2022-07-23T08:14:37;8.45;;;1.92;;
56401;SDS011;42299;35.160;26.100;2022-07-23T08:16:00;6.00;;;2.13;;
56401;SDS011;42299;35.160;26.100;2022-07-23T08:17:23;3.88;;;1.60;;
56401;SDS011;42299;35.160;26.100;2022-07-23T08:18:44;5.25;;;1.67;;
56401;SDS011;42299;35.160;26.100;2022-07-23T08:20:07;5.03;;;1.83;;
56401;SDS011;42299;35.160;26.100;2022-07-23T08:21:31;3.53;;;1.77;;